sensor_id;sensor_type;location;lat;lon;timestamp;P1;durP1;ratioP1;P2;durP2;ratioP2
43142;SDS011;28750;59.842;17.584;2023-02-27T00:00:13;6.13;;;2.22;;
43142;SDS011;28750;59.842;17.584;2023-02-27T00:02:42;4.45;;;2.70;;
43142;SDS011;28750;59.842;17.584;2023-02-27T00:05:10;9.35;;;3.42;;
43142;SDS011;28750;59.842;17.584;2023-02-27T00:07:37;7.10;;;2.78;;
43142;SDS011;28750;59.842;17.584;2023-02-27T00:10:05;8.73;;;3.08;;
43142;SDS011;28750;59.842;17.584;2023-02-27T00:12:33;8.68;;;3.22;;
43142;SDS011;28750;59.842;17.584;2023-02-27T00:15:06;4.90;;;2.70;;
43142;SDS011;28750;59.842;17.584;2023-02-27T00:17:38;7.38;;;2.60;;
43142;SDS011;28750;59.842;17.584;2023-02-27T00:20:06;7.10;;;2.95;;
43142;SDS011;28750;59.842;17.584;2023-02-27T00:22:35;6.53;;;3.05;;
43142;SDS011;28750;59.842;17.584;2023-02-27T00:25:03;6.03;;;2.70;;
43142;SDS011;28750;59.842;17.584;2023-02-27T00:27:31;7.25;;;2.58;;
43142;SDS011;28750;59.842;17.584;2023-02-27T00:29:58;6.38;;;2.67;;
43142;SDS011;28750;59.842;17.584;2023-02-27T00:32:26;6.28;;;2.60;;
43142;SDS011;28750;59.842;17.584;2023-02-27T00:34:53;8.93;;;3.45;;
43142;SDS011;28750;59.842;17.584;2023-02-27T00:37:20;4.28;;;2.30;;
43142;SDS011;28750;59.842;17.584;2023-02-27T00:39:47;6.63;;;2.70;;
43142;SDS011;28750;59.842;17.584;2023-02-27T00:42:14;3.75;;;2.20;;
43142;SDS011;28750;59.842;17.584;2023-02-27T00:44:41;5.95;;;2.97;;
43142;SDS011;28750;59.842;17.584;2023-02-27T00:47:08;7.55;;;3.30;;
43142;SDS011;28750;59.842;17.584;2023-02-27T00:49:35;7.32;;;2.70;;
43142;SDS011;28750;59.842;17.584;2023-02-27T00:52:02;7.68;;;2.92;;
43142;SDS011;28750;59.842;17.584;2023-02-27T00:54:29;6.97;;;3.03;;
43142;SDS011;28750;59.842;17.584;2023-02-27T00:56:55;6.70;;;3.30;;
43142;SDS011;28750;59.842;17.584;2023-02-27T00:59:22;7.28;;;3.17;;
43142;SDS011;28750;59.842;17.584;2023-02-27T01:01:49;5.55;;;2.47;;
43142;SDS011;28750;59.842;17.584;2023-02-27T01:04:16;5.82;;;2.38;;
43142;SDS011;28750;59.842;17.584;2023-02-27T01:06:43;5.05;;;2.15;;
43142;SDS011;28750;59.842;17.584;2023-02-27T01:09:10;6.55;;;2.38;;
43142;SDS011;28750;59.842;17.584;2023-02-27T01:11:37;6.38;;;2.63;;
43142;SDS011;28750;59.842;17.584;2023-02-27T01:14:04;7.22;;;2.60;;
43142;SDS011;28750;59.842;17.584;2023-02-27T01:16:31;4.53;;;2.38;;
43142;SDS011;28750;59.842;17.584;2023-02-27T01:18:58;7.25;;;2.60;;
43142;SDS011;28750;59.842;17.584;2023-02-27T01:21:25;9.52;;;2.55;;
43142;SDS011;28750;59.842;17.584;2023-02-27T01:23:52;5.97;;;2.90;;
43142;SDS011;28750;59.842;17.584;2023-02-27T01:26:19;6.10;;;2.65;;
43142;SDS011;28750;59.842;17.584;2023-02-27T01:28:46;6.78;;;2.58;;
43142;SDS011;28750;59.842;17.584;2023-02-27T01:31:13;3.83;;;2.30;;
43142;SDS011;28750;59.842;17.584;2023-02-27T01:33:40;3.58;;;2.22;;
43142;SDS011;28750;59.842;17.584;2023-02-27T01:36:07;4.65;;;2.22;;
43142;SDS011;28750;59.842;17.584;2023-02-27T01:38:35;7.40;;;2.83;;
43142;SDS011;28750;59.842;17.584;2023-02-27T01:41:02;4.45;;;2.10;;
43142;SDS011;28750;59.842;17.584;2023-02-27T01:43:31;6.68;;;2.80;;
43142;SDS011;28750;59.842;17.584;2023-02-27T01:45:59;7.57;;;2.67;;
43142;SDS011;28750;59.842;17.584;2023-02-27T01:48:35;4.32;;;2.55;;
43142;SDS011;28750;59.842;17.584;2023-02-27T01:51:11;4.22;;;2.42;;
43142;SDS011;28750;59.842;17.584;2023-02-27T01:53:44;6.07;;;2.97;;
43142;SDS011;28750;59.842;17.584;2023-02-27T01:56:19;6.28;;;2.53;;
43142;SDS011;28750;59.842;17.584;2023-02-27T01:58:48;5.80;;;2.58;;
43142;SDS011;28750;59.842;17.584;2023-02-27T02:01:16;6.32;;;2.70;;
43142;SDS011;28750;59.842;17.584;2023-02-27T02:06:34;4.78;;;2.50;;
43142;SDS011;28750;59.842;17.584;2023-02-27T02:09:03;4.07;;;2.42;;
43142;SDS011;28750;59.842;17.584;2023-02-27T02:11:32;6.47;;;3.38;;
43142;SDS011;28750;59.842;17.584;2023-02-27T02:13:59;4.60;;;2.72;;
43142;SDS011;28750;59.842;17.584;2023-02-27T02:19:15;6.30;;;2.83;;
43142;SDS011;28750;59.842;17.584;2023-02-27T02:28:20;5.45;;;2.92;;
43142;SDS011;28750;59.842;17.584;2023-02-27T02:58:55;4.60;;;2.58;;
43142;SDS011;28750;59.842;17.584;2023-02-27T03:04:24;5.80;;;2.50;;
43142;SDS011;28750;59.842;17.584;2023-02-27T03:06:59;5.32;;;2.45;;
43142;SDS011;28750;59.842;17.584;2023-02-27T03:09:36;5.80;;;2.40;;
43142;SDS011;28750;59.842;17.584;2023-02-27T03:12:08;5.43;;;2.22;;
43142;SDS011;28750;59.842;17.584;2023-02-27T03:14:54;8.13;;;2.70;;
43142;SDS011;28750;59.842;17.584;2023-02-27T03:17:38;8.55;;;3.00;;
43142;SDS011;28750;59.842;17.584;2023-02-27T03:20:08;4.85;;;2.38;;
43142;SDS011;28750;59.842;17.584;2023-02-27T03:22:41;2.92;;;1.95;;
43142;SDS011;28750;59.842;17.584;2023-02-27T03:25:11;8.20;;;2.38;;
43142;SDS011;28750;59.842;17.584;2023-02-27T03:27:42;4.30;;;2.65;;
43142;SDS011;28750;59.842;17.584;2023-02-27T03:30:48;5.50;;;2.63;;
43142;SDS011;28750;59.842;17.584;2023-02-27T03:33:17;5.53;;;2.35;;
43142;SDS011;28750;59.842;17.584;2023-02-27T03:38:35;5.10;;;2.45;;
43142;SDS011;28750;59.842;17.584;2023-02-27T03:41:15;4.10;;;2.28;;
43142;SDS011;28750;59.842;17.584;2023-02-27T03:46:51;3.38;;;1.92;;
43142;SDS011;28750;59.842;17.584;2023-02-27T03:49:18;3.67;;;2.15;;
43142;SDS011;28750;59.842;17.584;2023-02-27T03:51:46;4.50;;;2.42;;
43142;SDS011;28750;59.842;17.584;2023-02-27T03:54:13;5.13;;;2.53;;
43142;SDS011;28750;59.842;17.584;2023-02-27T03:59:09;4.15;;;2.25;;
43142;SDS011;28750;59.842;17.584;2023-02-27T04:01:36;4.40;;;2.20;;
43142;SDS011;28750;59.842;17.584;2023-02-27T04:04:04;4.47;;;2.00;;
43142;SDS011;28750;59.842;17.584;2023-02-27T04:06:37;4.60;;;2.80;;
43142;SDS011;28750;59.842;17.584;2023-02-27T04:11:55;5.20;;;2.45;;
43142;SDS011;28750;59.842;17.584;2023-02-27T04:18:03;4.28;;;2.40;;
43142;SDS011;28750;59.842;17.584;2023-02-27T04:20:53;4.97;;;2.38;;
43142;SDS011;28750;59.842;17.584;2023-02-27T04:31:23;4.95;;;2.80;;
43142;SDS011;28750;59.842;17.584;2023-02-27T04:34:40;3.67;;;2.05;;
43142;SDS011;28750;59.842;17.584;2023-02-27T04:37:11;5.00;;;2.13;;
43142;SDS011;28750;59.842;17.584;2023-02-27T04:39:55;6.78;;;2.28;;
43142;SDS011;28750;59.842;17.584;2023-02-27T04:42:32;4.18;;;1.95;;
43142;SDS011;28750;59.842;17.584;2023-02-27T04:45:04;3.70;;;2.20;;
43142;SDS011;28750;59.842;17.584;2023-02-27T04:47:37;3.22;;;2.08;;
43142;SDS011;28750;59.842;17.584;2023-02-27T04:50:10;3.72;;;2.47;;
43142;SDS011;28750;59.842;17.584;2023-02-27T04:52:44;4.03;;;2.20;;
43142;SDS011;28750;59.842;17.584;2023-02-27T04:55:23;3.90;;;2.33;;
43142;SDS011;28750;59.842;17.584;2023-02-27T04:58:02;4.28;;;2.40;;
43142;SDS011;28750;59.842;17.584;2023-02-27T05:00:35;4.30;;;2.08;;
43142;SDS011;28750;59.842;17.584;2023-02-27T05:03:10;4.57;;;2.58;;
43142;SDS011;28750;59.842;17.584;2023-02-27T05:05:42;3.60;;;1.95;;
43142;SDS011;28750;59.842;17.584;2023-02-27T05:14:00;3.33;;;2.08;;
43142;SDS011;28750;59.842;17.584;2023-02-27T05:17:34;5.43;;;2.15;;
43142;SDS011;28750;59.842;17.584;2023-02-27T05:19:32;5.25;;;2.53;;
43142;SDS011;28750;59.842;17.584;2023-02-27T05:25:13;2.70;;;2.13;;
43142;SDS011;28750;59.842;17.584;2023-02-27T05:28:23;6.00;;;2.50;;
43142;SDS011;28750;59.842;17.584;2023-02-27T05:31:02;4.30;;;1.90;;
43142;SDS011;28750;59.842;17.584;2023-02-27T05:33:37;2.45;;;1.88;;
43142;SDS011;28750;59.842;17.584;2023-02-27T05:36:18;4.63;;;2.17;;
43142;SDS011;28750;59.842;17.584;2023-02-27T05:38:55;3.25;;;2.20;;
43142;SDS011;28750;59.842;17.584;2023-02-27T05:41:46;5.00;;;2.00;;
43142;SDS011;28750;59.842;17.584;2023-02-27T05:44:28;5.88;;;2.60;;
43142;SDS011;28750;59.842;17.584;2023-02-27T05:46:58;5.10;;;2.17;;
43142;SDS011;28750;59.842;17.584;2023-02-27T05:49:47;4.60;;;2.58;;
43142;SDS011;28750;59.842;17.584;2023-02-27T05:52:19;4.28;;;2.45;;
43142;SDS011;28750;59.842;17.584;2023-02-27T05:57:50;6.15;;;2.72;;
43142;SDS011;28750;59.842;17.584;2023-02-27T06:00:34;5.28;;;2.50;;
43142;SDS011;28750;59.842;17.584;2023-02-27T06:03:21;5.60;;;2.47;;
43142;SDS011;28750;59.842;17.584;2023-02-27T06:05:48;3.85;;;2.78;;
43142;SDS011;28750;59.842;17.584;2023-02-27T06:08:18;6.18;;;2.78;;
43142;SDS011;28750;59.842;17.584;2023-02-27T06:10:46;5.32;;;2.13;;
43142;SDS011;28750;59.842;17.584;2023-02-27T06:13:14;3.35;;;2.22;;
43142;SDS011;28750;59.842;17.584;2023-02-27T06:15:42;4.82;;;2.33;;
43142;SDS011;28750;59.842;17.584;2023-02-27T06:18:10;3.60;;;2.33;;
43142;SDS011;28750;59.842;17.584;2023-02-27T06:20:38;3.92;;;2.33;;
43142;SDS011;28750;59.842;17.584;2023-02-27T06:23:06;4.05;;;2.20;;
43142;SDS011;28750;59.842;17.584;2023-02-27T06:25:33;3.90;;;1.90;;
43142;SDS011;28750;59.842;17.584;2023-02-27T06:28:00;4.15;;;2.55;;
43142;SDS011;28750;59.842;17.584;2023-02-27T06:30:27;7.40;;;2.42;;
43142;SDS011;28750;59.842;17.584;2023-02-27T06:32:54;4.03;;;2.08;;
43142;SDS011;28750;59.842;17.584;2023-02-27T06:35:21;3.08;;;2.10;;
43142;SDS011;28750;59.842;17.584;2023-02-27T06:37:48;4.20;;;2.35;;
43142;SDS011;28750;59.842;17.584;2023-02-27T06:40:15;4.47;;;2.20;;
43142;SDS011;28750;59.842;17.584;2023-02-27T06:42:43;2.78;;;2.15;;
43142;SDS011;28750;59.842;17.584;2023-02-27T06:45:10;3.53;;;2.03;;
43142;SDS011;28750;59.842;17.584;2023-02-27T06:47:38;6.18;;;2.53;;
43142;SDS011;28750;59.842;17.584;2023-02-27T06:50:06;3.03;;;2.10;;
43142;SDS011;28750;59.842;17.584;2023-02-27T06:52:35;4.97;;;2.28;;
43142;SDS011;28750;59.842;17.584;2023-02-27T06:55:04;4.78;;;2.58;;
43142;SDS011;28750;59.842;17.584;2023-02-27T06:57:32;2.70;;;2.15;;
43142;SDS011;28750;59.842;17.584;2023-02-27T06:59:59;6.18;;;2.70;;
43142;SDS011;28750;59.842;17.584;2023-02-27T07:02:26;3.33;;;2.00;;
43142;SDS011;28750;59.842;17.584;2023-02-27T07:04:53;4.00;;;2.40;;
43142;SDS011;28750;59.842;17.584;2023-02-27T07:07:19;4.57;;;2.17;;
43142;SDS011;28750;59.842;17.584;2023-02-27T07:09:47;2.72;;;2.03;;
43142;SDS011;28750;59.842;17.584;2023-02-27T07:12:14;3.28;;;1.98;;
43142;SDS011;28750;59.842;17.584;2023-02-27T07:14:41;3.88;;;2.38;;
43142;SDS011;28750;59.842;17.584;2023-02-27T07:17:08;5.78;;;2.20;;
43142;SDS011;28750;59.842;17.584;2023-02-27T07:19:35;6.13;;;2.28;;
43142;SDS011;28750;59.842;17.584;2023-02-27T07:22:02;3.90;;;2.40;;
43142;SDS011;28750;59.842;17.584;2023-02-27T07:24:29;7.55;;;2.03;;
43142;SDS011;28750;59.842;17.584;2023-02-27T07:26:56;1.90;;;1.70;;
43142;SDS011;28750;59.842;17.584;2023-02-27T07:29:23;3.90;;;2.60;;
43142;SDS011;28750;59.842;17.584;2023-02-27T07:31:49;6.97;;;1.95;;
43142;SDS011;28750;59.842;17.584;2023-02-27T07:34:16;5.45;;;2.00;;
43142;SDS011;28750;59.842;17.584;2023-02-27T07:36:43;3.95;;;1.98;;
43142;SDS011;28750;59.842;17.584;2023-02-27T07:39:11;3.45;;;1.40;;
43142;SDS011;28750;59.842;17.584;2023-02-27T07:41:38;5.30;;;1.00;;
43142;SDS011;28750;59.842;17.584;2023-02-27T07:44:06;2.15;;;1.40;;
43142;SDS011;28750;59.842;17.584;2023-02-27T07:46:33;4.78;;;2.08;;
43142;SDS011;28750;59.842;17.584;2023-02-27T07:49:01;2.72;;;1.77;;
43142;SDS011;28750;59.842;17.584;2023-02-27T07:51:28;3.00;;;1.27;;
43142;SDS011;28750;59.842;17.584;2023-02-27T07:53:55;3.08;;;1.08;;
43142;SDS011;28750;59.842;17.584;2023-02-27T07:56:23;2.28;;;0.82;;
43142;SDS011;28750;59.842;17.584;2023-02-27T07:58:51;1.27;;;0.80;;
43142;SDS011;28750;59.842;17.584;2023-02-27T08:01:18;0.82;;;0.65;;
43142;SDS011;28750;59.842;17.584;2023-02-27T08:03:45;1.60;;;0.63;;
43142;SDS011;28750;59.842;17.584;2023-02-27T08:06:12;1.92;;;0.50;;
43142;SDS011;28750;59.842;17.584;2023-02-27T08:08:39;0.40;;;0.40;;
43142;SDS011;28750;59.842;17.584;2023-02-27T08:11:06;0.32;;;0.32;;
43142;SDS011;28750;59.842;17.584;2023-02-27T08:13:33;0.40;;;0.15;;
43142;SDS011;28750;59.842;17.584;2023-02-27T08:16:00;0.20;;;0.20;;
43142;SDS011;28750;59.842;17.584;2023-02-27T08:18:27;0.20;;;0.20;;
43142;SDS011;28750;59.842;17.584;2023-02-27T08:20:54;0.22;;;0.22;;
43142;SDS011;28750;59.842;17.584;2023-02-27T08:23:22;0.30;;;0.20;;
43142;SDS011;28750;59.842;17.584;2023-02-27T08:25:48;0.32;;;0.30;;
43142;SDS011;28750;59.842;17.584;2023-02-27T08:28:15;0.95;;;0.28;;
43142;SDS011;28750;59.842;17.584;2023-02-27T08:30:43;0.50;;;0.20;;
43142;SDS011;28750;59.842;17.584;2023-02-27T08:33:10;0.30;;;0.30;;
43142;SDS011;28750;59.842;17.584;2023-02-27T08:35:37;0.20;;;0.20;;
43142;SDS011;28750;59.842;17.584;2023-02-27T08:38:03;1.58;;;0.32;;
43142;SDS011;28750;59.842;17.584;2023-02-27T08:40:30;0.63;;;0.40;;
43142;SDS011;28750;59.842;17.584;2023-02-27T08:42:57;0.28;;;0.28;;
43142;SDS011;28750;59.842;17.584;2023-02-27T08:45:25;0.32;;;0.30;;
43142;SDS011;28750;59.842;17.584;2023-02-27T08:47:52;0.40;;;0.32;;
43142;SDS011;28750;59.842;17.584;2023-02-27T08:50:19;0.20;;;0.20;;
43142;SDS011;28750;59.842;17.584;2023-02-27T08:52:46;0.20;;;0.20;;
43142;SDS011;28750;59.842;17.584;2023-02-27T08:55:13;0.28;;;0.20;;
43142;SDS011;28750;59.842;17.584;2023-02-27T08:57:40;0.20;;;0.20;;
43142;SDS011;28750;59.842;17.584;2023-02-27T09:00:07;0.20;;;0.20;;
43142;SDS011;28750;59.842;17.584;2023-02-27T09:02:38;0.10;;;0.10;;
43142;SDS011;28750;59.842;17.584;2023-02-27T09:05:05;0.20;;;0.10;;
43142;SDS011;28750;59.842;17.584;2023-02-27T09:07:32;0.30;;;0.30;;
43142;SDS011;28750;59.842;17.584;2023-02-27T09:09:59;0.10;;;0.10;;
43142;SDS011;28750;59.842;17.584;2023-02-27T09:12:26;0.60;;;0.28;;
43142;SDS011;28750;59.842;17.584;2023-02-27T09:14:53;0.30;;;0.30;;
43142;SDS011;28750;59.842;17.584;2023-02-27T09:17:20;0.30;;;0.30;;
43142;SDS011;28750;59.842;17.584;2023-02-27T09:19:47;0.35;;;0.20;;
43142;SDS011;28750;59.842;17.584;2023-02-27T09:22:16;0.38;;;0.10;;
43142;SDS011;28750;59.842;17.584;2023-02-27T09:24:43;0.20;;;0.20;;
43142;SDS011;28750;59.842;17.584;2023-02-27T09:27:10;0.20;;;0.10;;
43142;SDS011;28750;59.842;17.584;2023-02-27T09:29:37;0.75;;;0.10;;
43142;SDS011;28750;59.842;17.584;2023-02-27T09:32:04;0.28;;;0.28;;
43142;SDS011;28750;59.842;17.584;2023-02-27T09:34:31;0.10;;;0.10;;
43142;SDS011;28750;59.842;17.584;2023-02-27T09:36:59;0.17;;;0.10;;
43142;SDS011;28750;59.842;17.584;2023-02-27T09:39:27;0.28;;;0.28;;
43142;SDS011;28750;59.842;17.584;2023-02-27T09:42:16;0.17;;;0.17;;
43142;SDS011;28750;59.842;17.584;2023-02-27T09:44:48;0.38;;;0.20;;
43142;SDS011;28750;59.842;17.584;2023-02-27T09:47:28;0.00;;;0.00;;
43142;SDS011;28750;59.842;17.584;2023-02-27T09:50:05;0.13;;;0.13;;
43142;SDS011;28750;59.842;17.584;2023-02-27T09:52:34;0.15;;;0.15;;
43142;SDS011;28750;59.842;17.584;2023-02-27T09:55:18;0.10;;;0.10;;
43142;SDS011;28750;59.842;17.584;2023-02-27T09:57:55;0.10;;;0.10;;
43142;SDS011;28750;59.842;17.584;2023-02-27T10:11:12;0.28;;;0.28;;
43142;SDS011;28750;59.842;17.584;2023-02-27T10:14:24;1.35;;;0.10;;
43142;SDS011;28750;59.842;17.584;2023-02-27T10:16:42;0.20;;;0.20;;
43142;SDS011;28750;59.842;17.584;2023-02-27T10:19:14;0.20;;;0.20;;
43142;SDS011;28750;59.842;17.584;2023-02-27T10:21:45;0.30;;;0.30;;
43142;SDS011;28750;59.842;17.584;2023-02-27T10:26:57;0.30;;;0.30;;
43142;SDS011;28750;59.842;17.584;2023-02-27T10:29:33;0.20;;;0.20;;
43142;SDS011;28750;59.842;17.584;2023-02-27T10:32:10;0.38;;;0.38;;
43142;SDS011;28750;59.842;17.584;2023-02-27T10:37:24;0.70;;;0.40;;
43142;SDS011;28750;59.842;17.584;2023-02-27T10:39:56;0.20;;;0.20;;
43142;SDS011;28750;59.842;17.584;2023-02-27T10:42:29;0.47;;;0.30;;
43142;SDS011;28750;59.842;17.584;2023-02-27T10:45:02;0.25;;;0.25;;
43142;SDS011;28750;59.842;17.584;2023-02-27T10:47:38;0.30;;;0.30;;
43142;SDS011;28750;59.842;17.584;2023-02-27T10:53:16;0.30;;;0.30;;
43142;SDS011;28750;59.842;17.584;2023-02-27T10:55:47;0.80;;;0.40;;
43142;SDS011;28750;59.842;17.584;2023-02-27T10:58:34;0.35;;;0.30;;
43142;SDS011;28750;59.842;17.584;2023-02-27T11:01:03;0.60;;;0.47;;
43142;SDS011;28750;59.842;17.584;2023-02-27T11:03:39;0.10;;;0.10;;
43142;SDS011;28750;59.842;17.584;2023-02-27T11:06:11;0.52;;;0.40;;
43142;SDS011;28750;59.842;17.584;2023-02-27T11:14:53;0.10;;;0.10;;
43142;SDS011;28750;59.842;17.584;2023-02-27T11:17:24;0.10;;;0.10;;
43142;SDS011;28750;59.842;17.584;2023-02-27T11:19:57;0.17;;;0.10;;
43142;SDS011;28750;59.842;17.584;2023-02-27T11:22:27;0.10;;;0.10;;
43142;SDS011;28750;59.842;17.584;2023-02-27T11:25:13;1.92;;;0.10;;
43142;SDS011;28750;59.842;17.584;2023-02-27T11:27:47;0.10;;;0.10;;
43142;SDS011;28750;59.842;17.584;2023-02-27T11:32:56;0.10;;;0.10;;
43142;SDS011;28750;59.842;17.584;2023-02-27T11:35:30;0.38;;;0.17;;
43142;SDS011;28750;59.842;17.584;2023-02-27T11:38:04;0.20;;;0.20;;
43142;SDS011;28750;59.842;17.584;2023-02-27T11:40:47;0.20;;;0.20;;
43142;SDS011;28750;59.842;17.584;2023-02-27T11:43:36;0.10;;;0.10;;
43142;SDS011;28750;59.842;17.584;2023-02-27T11:46:18;0.13;;;0.10;;
43142;SDS011;28750;59.842;17.584;2023-02-27T11:48:47;0.13;;;0.13;;
43142;SDS011;28750;59.842;17.584;2023-02-27T11:59:55;0.20;;;0.20;;
43142;SDS011;28750;59.842;17.584;2023-02-27T12:02:40;0.52;;;0.40;;
43142;SDS011;28750;59.842;17.584;2023-02-27T12:05:37;0.25;;;0.25;;
43142;SDS011;28750;59.842;17.584;2023-02-27T12:08:19;0.30;;;0.30;;
43142;SDS011;28750;59.842;17.584;2023-02-27T12:11:23;0.45;;;0.43;;
43142;SDS011;28750;59.842;17.584;2023-02-27T12:16:53;0.40;;;0.40;;
43142;SDS011;28750;59.842;17.584;2023-02-27T12:19:28;0.20;;;0.20;;
43142;SDS011;28750;59.842;17.584;2023-02-27T12:22:23;0.30;;;0.30;;
43142;SDS011;28750;59.842;17.584;2023-02-27T12:25:03;0.30;;;0.30;;
43142;SDS011;28750;59.842;17.584;2023-02-27T12:27:51;0.32;;;0.32;;
43142;SDS011;28750;59.842;17.584;2023-02-27T12:30:25;0.25;;;0.25;;
43142;SDS011;28750;59.842;17.584;2023-02-27T12:35:29;0.30;;;0.30;;
43142;SDS011;28750;59.842;17.584;2023-02-27T12:37:57;0.30;;;0.30;;
43142;SDS011;28750;59.842;17.584;2023-02-27T12:40:30;0.20;;;0.20;;
43142;SDS011;28750;59.842;17.584;2023-02-27T12:54:24;0.30;;;0.30;;
43142;SDS011;28750;59.842;17.584;2023-02-27T13:05:25;0.30;;;0.30;;
43142;SDS011;28750;59.842;17.584;2023-02-27T13:10:47;0.20;;;0.20;;
43142;SDS011;28750;59.842;17.584;2023-02-27T13:13:43;0.35;;;0.30;;
43142;SDS011;28750;59.842;17.584;2023-02-27T13:16:23;0.30;;;0.20;;
43142;SDS011;28750;59.842;17.584;2023-02-27T13:21:31;0.20;;;0.20;;
43142;SDS011;28750;59.842;17.584;2023-02-27T13:24:11;0.40;;;0.40;;
43142;SDS011;28750;59.842;17.584;2023-02-27T13:27:00;0.30;;;0.30;;
43142;SDS011;28750;59.842;17.584;2023-02-27T13:29:42;0.70;;;0.40;;
43142;SDS011;28750;59.842;17.584;2023-02-27T13:35:37;0.20;;;0.20;;
43142;SDS011;28750;59.842;17.584;2023-02-27T13:43:46;0.30;;;0.30;;
43142;SDS011;28750;59.842;17.584;2023-02-27T13:46:21;0.30;;;0.30;;
43142;SDS011;28750;59.842;17.584;2023-02-27T13:56:38;0.20;;;0.20;;
43142;SDS011;28750;59.842;17.584;2023-02-27T14:01:52;0.38;;;0.10;;
43142;SDS011;28750;59.842;17.584;2023-02-27T14:04:22;0.65;;;0.20;;
43142;SDS011;28750;59.842;17.584;2023-02-27T14:06:59;0.17;;;0.10;;
43142;SDS011;28750;59.842;17.584;2023-02-27T14:10:08;0.20;;;0.20;;
43142;SDS011;28750;59.842;17.584;2023-02-27T14:12:37;0.10;;;0.10;;
43142;SDS011;28750;59.842;17.584;2023-02-27T14:17:48;0.20;;;0.20;;
43142;SDS011;28750;59.842;17.584;2023-02-27T14:25:44;3.00;;;0.20;;
43142;SDS011;28750;59.842;17.584;2023-02-27T14:28:26;0.20;;;0.17;;
43142;SDS011;28750;59.842;17.584;2023-02-27T14:31:23;0.20;;;0.13;;
43142;SDS011;28750;59.842;17.584;2023-02-27T14:33:54;1.65;;;0.20;;
43142;SDS011;28750;59.842;17.584;2023-02-27T14:36:29;0.20;;;0.20;;
43142;SDS011;28750;59.842;17.584;2023-02-27T14:39:00;0.20;;;0.10;;
43142;SDS011;28750;59.842;17.584;2023-02-27T14:44:20;0.43;;;0.20;;
43142;SDS011;28750;59.842;17.584;2023-02-27T14:46:53;1.83;;;0.20;;
43142;SDS011;28750;59.842;17.584;2023-02-27T14:49:29;1.45;;;0.17;;
43142;SDS011;28750;59.842;17.584;2023-02-27T14:57:55;1.77;;;0.20;;
43142;SDS011;28750;59.842;17.584;2023-02-27T15:00:29;0.10;;;0.10;;
43142;SDS011;28750;59.842;17.584;2023-02-27T15:02:58;0.13;;;0.10;;
43142;SDS011;28750;59.842;17.584;2023-02-27T15:05:29;0.47;;;0.15;;
43142;SDS011;28750;59.842;17.584;2023-02-27T15:10:26;0.15;;;0.10;;
43142;SDS011;28750;59.842;17.584;2023-02-27T15:12:57;0.10;;;0.10;;
43142;SDS011;28750;59.842;17.584;2023-02-27T15:15:25;0.10;;;0.10;;
43142;SDS011;28750;59.842;17.584;2023-02-27T15:17:53;0.20;;;0.10;;
43142;SDS011;28750;59.842;17.584;2023-02-27T15:20:25;0.35;;;0.20;;
43142;SDS011;28750;59.842;17.584;2023-02-27T15:22:55;0.65;;;0.20;;
43142;SDS011;28750;59.842;17.584;2023-02-27T15:27:53;0.10;;;0.10;;
43142;SDS011;28750;59.842;17.584;2023-02-27T15:30:27;0.15;;;0.13;;
43142;SDS011;28750;59.842;17.584;2023-02-27T15:32:55;0.17;;;0.10;;
43142;SDS011;28750;59.842;17.584;2023-02-27T15:35:24;0.10;;;0.10;;
43142;SDS011;28750;59.842;17.584;2023-02-27T15:37:57;0.20;;;0.20;;
43142;SDS011;28750;59.842;17.584;2023-02-27T15:40:27;0.10;;;0.10;;
43142;SDS011;28750;59.842;17.584;2023-02-27T15:42:56;0.10;;;0.10;;
43142;SDS011;28750;59.842;17.584;2023-02-27T15:45:33;0.10;;;0.10;;
43142;SDS011;28750;59.842;17.584;2023-02-27T15:48:01;0.35;;;0.10;;
43142;SDS011;28750;59.842;17.584;2023-02-27T15:50:36;0.13;;;0.10;;
43142;SDS011;28750;59.842;17.584;2023-02-27T15:55:33;0.95;;;0.20;;
43142;SDS011;28750;59.842;17.584;2023-02-27T15:58:28;0.10;;;0.10;;
43142;SDS011;28750;59.842;17.584;2023-02-27T16:03:28;0.20;;;0.10;;
43142;SDS011;28750;59.842;17.584;2023-02-27T16:06:01;0.30;;;0.30;;
43142;SDS011;28750;59.842;17.584;2023-02-27T16:08:35;0.20;;;0.20;;
43142;SDS011;28750;59.842;17.584;2023-02-27T16:11:16;0.20;;;0.20;;
43142;SDS011;28750;59.842;17.584;2023-02-27T16:13:47;3.30;;;0.30;;
43142;SDS011;28750;59.842;17.584;2023-02-27T16:16:22;0.20;;;0.10;;
43142;SDS011;28750;59.842;17.584;2023-02-27T16:18:53;0.65;;;0.10;;
43142;SDS011;28750;59.842;17.584;2023-02-27T16:21:27;0.10;;;0.10;;
43142;SDS011;28750;59.842;17.584;2023-02-27T16:24:16;0.10;;;0.10;;
43142;SDS011;28750;59.842;17.584;2023-02-27T16:26:48;0.10;;;0.10;;
43142;SDS011;28750;59.842;17.584;2023-02-27T16:29:18;1.13;;;0.20;;
43142;SDS011;28750;59.842;17.584;2023-02-27T16:31:57;0.20;;;0.20;;
43142;SDS011;28750;59.842;17.584;2023-02-27T16:37:15;0.10;;;0.10;;
43142;SDS011;28750;59.842;17.584;2023-02-27T16:39:56;0.10;;;0.10;;
43142;SDS011;28750;59.842;17.584;2023-02-27T16:42:23;0.10;;;0.10;;
43142;SDS011;28750;59.842;17.584;2023-02-27T16:44:50;0.10;;;0.10;;
43142;SDS011;28750;59.842;17.584;2023-02-27T16:47:16;0.10;;;0.10;;
43142;SDS011;28750;59.842;17.584;2023-02-27T16:49:44;0.10;;;0.10;;
43142;SDS011;28750;59.842;17.584;2023-02-27T16:52:13;0.25;;;0.20;;
43142;SDS011;28750;59.842;17.584;2023-02-27T16:54:40;0.13;;;0.13;;
43142;SDS011;28750;59.842;17.584;2023-02-27T16:57:08;0.47;;;0.30;;
43142;SDS011;28750;59.842;17.584;2023-02-27T16:59:36;0.32;;;0.30;;
43142;SDS011;28750;59.842;17.584;2023-02-27T17:02:14;0.40;;;0.30;;
43142;SDS011;28750;59.842;17.584;2023-02-27T17:04:41;0.20;;;0.20;;
43142;SDS011;28750;59.842;17.584;2023-02-27T17:07:13;0.20;;;0.20;;
43142;SDS011;28750;59.842;17.584;2023-02-27T17:09:42;0.25;;;0.25;;
43142;SDS011;28750;59.842;17.584;2023-02-27T17:12:09;1.17;;;0.30;;
43142;SDS011;28750;59.842;17.584;2023-02-27T17:14:36;0.10;;;0.10;;
43142;SDS011;28750;59.842;17.584;2023-02-27T17:17:03;0.20;;;0.20;;
43142;SDS011;28750;59.842;17.584;2023-02-27T17:19:31;0.20;;;0.20;;
43142;SDS011;28750;59.842;17.584;2023-02-27T17:21:58;0.30;;;0.30;;
43142;SDS011;28750;59.842;17.584;2023-02-27T17:24:25;0.10;;;0.10;;
43142;SDS011;28750;59.842;17.584;2023-02-27T17:26:52;0.30;;;0.30;;
43142;SDS011;28750;59.842;17.584;2023-02-27T17:29:19;0.57;;;0.28;;
43142;SDS011;28750;59.842;17.584;2023-02-27T17:31:46;0.20;;;0.20;;
43142;SDS011;28750;59.842;17.584;2023-02-27T17:34:13;0.65;;;0.30;;
43142;SDS011;28750;59.842;17.584;2023-02-27T17:36:41;0.20;;;0.20;;
43142;SDS011;28750;59.842;17.584;2023-02-27T17:39:10;0.50;;;0.30;;
43142;SDS011;28750;59.842;17.584;2023-02-27T17:41:38;0.43;;;0.43;;
43142;SDS011;28750;59.842;17.584;2023-02-27T17:44:08;1.20;;;0.30;;
43142;SDS011;28750;59.842;17.584;2023-02-27T17:46:36;0.20;;;0.20;;
43142;SDS011;28750;59.842;17.584;2023-02-27T17:49:03;0.57;;;0.40;;
43142;SDS011;28750;59.842;17.584;2023-02-27T17:51:31;0.30;;;0.30;;
43142;SDS011;28750;59.842;17.584;2023-02-27T17:54:02;0.30;;;0.30;;
43142;SDS011;28750;59.842;17.584;2023-02-27T17:56:30;0.20;;;0.20;;
43142;SDS011;28750;59.842;17.584;2023-02-27T17:58:58;0.32;;;0.32;;
43142;SDS011;28750;59.842;17.584;2023-02-27T18:01:24;0.40;;;0.40;;
43142;SDS011;28750;59.842;17.584;2023-02-27T18:03:52;0.40;;;0.40;;
43142;SDS011;28750;59.842;17.584;2023-02-27T18:06:20;0.88;;;0.63;;
43142;SDS011;28750;59.842;17.584;2023-02-27T18:08:47;0.35;;;0.35;;
43142;SDS011;28750;59.842;17.584;2023-02-27T18:11:16;0.30;;;0.30;;
43142;SDS011;28750;59.842;17.584;2023-02-27T18:13:45;1.25;;;0.30;;